Time,TemperatureF,DewpointF,PressureIn,WindDirection,WindDirectionDegrees,WindSpeedMPH,WindSpeedGustMPH,Humidity,HourlyPrecipIn,Conditions,Clouds,dailyrainin,SoftwareType,DateUTC
2013-06-29 00:11:00,79.7,76.8,29.49,WSW,247,5.3,-999.0,91,-99.99,,,0.00,Acu-Link.com,2013-06-29 04:11:00,
2013-06-29 00:26:00,79.5,76.6,29.48,SSW,202,9.9,-999.0,91,-99.99,,,0.00,Acu-Link.com,2013-06-29 04:26:00,
2013-06-29 00:41:00,79.5,76.6,29.49,SSW,202,11.4,-999.0,91,-99.99,,,0.00,Acu-Link.com,2013-06-29 04:41:00,
2013-06-29 00:57:00,79.5,76.6,29.48,NNW,337,7.3,-999.0,91,-99.99,,,0.00,Acu-Link.com,2013-06-29 04:57:00,
2013-06-29 01:12:00,79.5,76.3,29.47,SSW,202,11.4,-999.0,90,-99.99,,,0.00,Acu-Link.com,2013-06-29 05:12:00,
2013-06-29 01:27:00,79.5,76.0,29.46,South,180,5.3,-999.0,89,-99.99,,,0.00,Acu-Link.com,2013-06-29 05:27:00,
2013-06-29 01:42:00,79.3,75.8,29.46,SW,225,6.3,-999.0,89,-99.99,,,0.00,Acu-Link.com,2013-06-29 05:42:00,
2013-06-29 01:57:00,79.5,75.3,29.46,SW,225,9.9,-999.0,87,-99.99,,,0.00,Acu-Link.com,2013-06-29 05:57:00,
2013-06-29 02:12:00,79.7,75.5,29.47,SW,225,17.1,-999.0,87,-99.99,,,0.00,Acu-Link.com,2013-06-29 06:12:00,
2013-06-29 02:27:00,79.7,75.5,29.46,SW,225,12.5,-999.0,87,-99.99,,,0.00,Acu-Link.com,2013-06-29 06:27:00,
2013-06-29 02:42:00,79.7,75.5,29.46,West,270,9.4,-999.0,87,-99.99,,,0.00,Acu-Link.com,2013-06-29 06:42:00,
2013-06-29 02:57:00,79.7,75.5,29.45,South,180,13.5,-999.0,87,-99.99,,,0.00,Acu-Link.com,2013-06-29 06:57:00,
2013-06-29 03:13:00,79.5,75.6,29.45,South,180,15.0,-999.0,88,-99.99,,,0.00,Acu-Link.com,2013-06-29 07:13:00,
2013-06-29 03:28:00,79.5,75.6,29.45,SSW,202,7.3,-999.0,88,-99.99,,,0.00,Acu-Link.com,2013-06-29 07:28:00,
2013-06-29 03:43:00,79.5,75.6,29.45,SSW,202,7.8,-999.0,88,-99.99,,,0.00,Acu-Link.com,2013-06-29 07:43:00,
2013-06-29 03:58:00,79.5,75.6,29.46,WSW,247,10.4,-999.0,88,-99.99,,,0.00,Acu-Link.com,2013-06-29 07:58:00,
2013-06-29 04:14:00,79.5,75.6,29.46,South,180,11.9,-999.0,88,-99.99,,,0.00,Acu-Link.com,2013-06-29 08:14:00,
2013-06-29 04:29:00,79.5,75.6,29.46,SW,225,11.4,-999.0,88,-99.99,,,0.00,Acu-Link.com,2013-06-29 08:29:00,
2013-06-29 04:44:00,79.5,75.6,29.46,WSW,247,11.4,-999.0,88,-99.99,,,0.00,Acu-Link.com,2013-06-29 08:44:00,
2013-06-29 04:59:00,79.5,75.6,29.46,SSW,202,10.4,-999.0,88,-99.99,,,0.00,Acu-Link.com,2013-06-29 08:59:00,
2013-06-29 05:14:00,79.3,75.4,29.47,SSW,202,11.4,-999.0,88,-99.99,,,0.00,Acu-Link.com,2013-06-29 09:14:00,
2013-06-29 05:30:00,79.3,75.4,29.47,SSW,202,11.9,-999.0,88,-99.99,,,0.00,Acu-Link.com,2013-06-29 09:30:00,
2013-06-29 05:45:00,79.3,75.4,29.48,South,180,21.7,-999.0,88,-99.99,,,0.00,Acu-Link.com,2013-06-29 09:45:00,
2013-06-29 06:00:00,79.3,75.1,29.48,SSW,202,9.9,-999.0,87,-99.99,,,0.00,Acu-Link.com,2013-06-29 10:00:00,
2013-06-29 06:15:00,79.3,75.1,29.49,SW,225,9.9,-999.0,87,-99.99,,,0.00,Acu-Link.com,2013-06-29 10:15:00,
2013-06-29 06:30:00,79.2,75.0,29.48,WNW,292,9.4,-999.0,87,-99.99,,,0.00,Acu-Link.com,2013-06-29 10:30:00,
2013-06-29 06:45:00,79.3,75.1,29.48,SW,225,13.0,-999.0,87,-99.99,,,0.00,Acu-Link.com,2013-06-29 10:45:00,
2013-06-29 07:00:00,79.3,75.1,29.49,WNW,292,11.4,-999.0,87,-99.99,,,0.00,Acu-Link.com,2013-06-29 11:00:00,
2013-06-29 07:16:00,79.3,75.1,29.48,SSW,202,13.5,-999.0,87,-99.99,,,0.00,Acu-Link.com,2013-06-29 11:16:00,
2013-06-29 07:31:00,79.3,75.1,29.50,SW,225,9.4,-999.0,87,-99.99,,,0.00,Acu-Link.com,2013-06-29 11:31:00,
2013-06-29 07:46:00,79.9,75.7,29.48,SSW,202,15.0,-999.0,87,-99.99,,,0.00,Acu-Link.com,2013-06-29 11:46:00,
2013-06-29 08:01:00,79.9,75.3,29.48,SW,225,10.9,-999.0,86,-99.99,,,0.00,Acu-Link.com,2013-06-29 12:01:00,
2013-06-29 08:16:00,80.2,75.3,29.49,SSW,202,4.7,-999.0,85,-99.99,,,0.00,Acu-Link.com,2013-06-29 12:16:00,
2013-06-29 08:31:00,80.4,75.5,29.49,SSW,202,9.4,-999.0,85,-99.99,,,0.00,Acu-Link.com,2013-06-29 12:31:00,
2013-06-29 08:46:00,80.8,75.9,29.50,South,180,10.9,-999.0,85,-99.99,,,0.00,Acu-Link.com,2013-06-29 12:46:00,
2013-06-29 09:01:00,80.8,75.9,29.50,WNW,292,7.3,-999.0,85,-99.99,,,0.00,Acu-Link.com,2013-06-29 13:01:00,
2013-06-29 09:16:00,82.0,76.7,29.51,SW,225,8.9,-999.0,84,-99.99,,,0.00,Acu-Link.com,2013-06-29 13:16:00,
2013-06-29 09:32:00,80.8,75.5,29.51,SW,225,11.4,-999.0,84,-99.99,,,0.00,Acu-Link.com,2013-06-29 13:32:00,
2013-06-29 09:47:00,80.6,75.7,29.51,SSW,202,15.5,-999.0,85,-99.99,,,0.00,Acu-Link.com,2013-06-29 13:47:00,
2013-06-29 10:02:00,81.3,76.0,29.51,SSW,202,8.3,-999.0,84,-99.99,,,0.00,Acu-Link.com,2013-06-29 14:02:00,
2013-06-29 10:17:00,81.3,75.3,29.50,SSW,202,6.8,-999.0,82,-99.99,,,0.00,Acu-Link.com,2013-06-29 14:17:00,
2013-06-29 10:32:00,80.6,74.6,29.49,West,270,8.9,-999.0,82,-99.99,,,0.00,Acu-Link.com,2013-06-29 14:32:00,
2013-06-29 10:47:00,81.3,75.3,29.49,SSW,202,13.0,-999.0,82,-99.99,,,0.00,Acu-Link.com,2013-06-29 14:47:00,
2013-06-29 11:02:00,82.2,75.8,29.50,SSW,202,5.3,-999.0,81,-99.99,,,0.00,Acu-Link.com,2013-06-29 15:02:00,
2013-06-29 11:17:00,81.7,74.9,29.49,SSW,202,8.3,-999.0,80,-99.99,,,0.00,Acu-Link.com,2013-06-29 15:17:00,
2013-06-29 11:33:00,81.7,74.5,29.51,SSW,202,9.4,-999.0,79,-99.99,,,0.00,Acu-Link.com,2013-06-29 15:33:00,
2013-06-29 11:48:00,81.7,74.5,29.50,SW,225,12.5,-999.0,79,-99.99,,,0.00,Acu-Link.com,2013-06-29 15:48:00,
2013-06-29 12:03:00,81.7,74.9,29.51,SSW,202,9.9,-999.0,80,-99.99,,,0.00,Acu-Link.com,2013-06-29 16:03:00,
2013-06-29 12:18:00,81.5,74.3,29.51,WSW,247,10.4,-999.0,79,-99.99,,,0.00,Acu-Link.com,2013-06-29 16:18:00,
2013-06-29 12:33:00,80.4,74.4,29.51,SSW,202,5.8,-999.0,82,-99.99,,,0.00,Acu-Link.com,2013-06-29 16:33:00,
2013-06-29 12:48:00,81.9,75.5,29.52,West,270,7.3,-999.0,81,-99.99,,,0.00,Acu-Link.com,2013-06-29 16:48:00,
2013-06-29 13:04:00,82.0,74.8,29.53,SW,225,10.9,-999.0,79,-99.99,,,0.00,Acu-Link.com,2013-06-29 17:04:00,
2013-06-29 13:19:00,81.7,74.9,29.51,South,180,11.4,-999.0,80,-99.99,,,0.00,Acu-Link.com,2013-06-29 17:19:00,
2013-06-29 13:34:00,81.5,74.7,29.52,SW,225,10.9,-999.0,80,-99.99,,,0.00,Acu-Link.com,2013-06-29 17:34:00,
2013-06-29 13:49:00,80.6,74.6,29.52,WSW,247,8.3,-999.0,82,-99.99,,,0.00,Acu-Link.com,2013-06-29 17:49:00,
2013-06-29 14:04:00,81.1,74.3,29.53,WSW,247,6.3,-999.0,80,-99.99,,,0.00,Acu-Link.com,2013-06-29 18:04:00,
2013-06-29 14:19:00,81.9,74.7,29.52,WSW,247,7.3,-999.0,79,-99.99,,,0.00,Acu-Link.com,2013-06-29 18:19:00,
2013-06-29 14:34:00,81.9,74.7,29.52,SW,225,10.4,-999.0,79,-99.99,,,0.00,Acu-Link.com,2013-06-29 18:34:00,
2013-06-29 14:49:00,81.3,75.3,29.53,SSW,202,9.4,-999.0,82,-99.99,,,0.00,Acu-Link.com,2013-06-29 18:49:00,
2013-06-29 15:04:00,81.1,75.8,29.52,SSW,202,8.9,-999.0,84,-99.99,,,0.00,Acu-Link.com,2013-06-29 19:04:00,
2013-06-29 15:20:00,81.7,76.7,29.53,SW,225,5.8,-999.0,85,-99.99,,,0.00,Acu-Link.com,2013-06-29 19:20:00,
2013-06-29 15:35:00,81.1,76.1,29.53,SW,225,8.3,-999.0,85,-99.99,,,0.00,Acu-Link.com,2013-06-29 19:35:00,
2013-06-29 15:50:00,80.8,76.2,29.52,SSE,157,8.9,-999.0,86,-99.99,,,0.00,Acu-Link.com,2013-06-29 19:50:00,
2013-06-29 16:05:00,80.2,75.6,29.52,SSW,202,11.9,-999.0,86,-99.99,,,0.00,Acu-Link.com,2013-06-29 20:05:00,
2013-06-29 16:20:00,81.5,75.8,29.52,South,180,11.9,-999.0,83,-99.99,,,0.00,Acu-Link.com,2013-06-29 20:20:00,
2013-06-29 16:35:00,81.1,74.7,29.54,SSW,202,13.5,-999.0,81,-99.99,,,0.00,Acu-Link.com,2013-06-29 20:35:00,
2013-06-29 16:50:00,80.4,74.0,29.52,SW,225,7.8,-999.0,81,-99.99,,,0.00,Acu-Link.com,2013-06-29 20:50:00,
2013-06-29 17:05:00,82.2,74.3,29.52,SSW,202,10.9,-999.0,77,-99.99,,,0.00,Acu-Link.com,2013-06-29 21:05:00,
2013-06-29 17:20:00,80.8,73.7,29.52,West,270,7.8,-999.0,79,-99.99,,,0.00,Acu-Link.com,2013-06-29 21:20:00,
2013-06-29 17:36:00,81.3,74.5,29.51,South,180,10.4,-999.0,80,-99.99,,,0.00,Acu-Link.com,2013-06-29 21:36:00,
2013-06-29 17:51:00,81.3,74.5,29.52,WSW,247,14.0,-999.0,80,-99.99,,,0.00,Acu-Link.com,2013-06-29 21:51:00,
2013-06-29 18:06:00,80.4,74.4,29.52,SSW,202,11.4,-999.0,82,-99.99,,,0.00,Acu-Link.com,2013-06-29 22:06:00,
2013-06-29 18:21:00,79.5,74.2,29.52,WSW,247,11.9,-999.0,84,-99.99,,,0.00,Acu-Link.com,2013-06-29 22:21:00,
2013-06-29 18:36:00,79.5,74.9,29.51,SW,225,9.4,-999.0,86,-99.99,,,0.00,Acu-Link.com,2013-06-29 22:36:00,
2013-06-29 18:51:00,79.3,74.7,29.52,WSW,247,7.8,-999.0,86,-99.99,,,0.00,Acu-Link.com,2013-06-29 22:51:00,
2013-06-29 19:07:00,79.3,74.4,29.52,SW,225,8.3,-999.0,85,-99.99,,,0.00,Acu-Link.com,2013-06-29 23:07:00,
2013-06-29 19:22:00,78.8,73.9,29.53,SSW,202,7.3,-999.0,85,-99.99,,,0.00,Acu-Link.com,2013-06-29 23:22:00,
2013-06-29 19:37:00,78.6,73.7,29.52,SW,225,9.9,-999.0,85,-99.99,,,0.00,Acu-Link.com,2013-06-29 23:37:00,
2013-06-29 19:52:00,78.8,74.2,29.53,WSW,247,8.3,-999.0,86,-99.99,,,0.00,Acu-Link.com,2013-06-29 23:52:00,
2013-06-29 20:07:00,78.4,73.9,29.54,SSW,202,9.4,-999.0,86,-99.99,,,0.00,Acu-Link.com,2013-06-30 00:07:00,
2013-06-29 20:22:00,78.4,73.9,29.55,West,270,10.4,-999.0,86,-99.99,,,0.00,Acu-Link.com,2013-06-30 00:22:00,
2013-06-29 20:37:00,78.4,73.9,29.55,SW,225,7.8,-999.0,86,-99.99,,,0.00,Acu-Link.com,2013-06-30 00:37:00,
2013-06-29 20:52:00,78.4,73.9,29.56,WNW,292,7.8,-999.0,86,-99.99,,,0.00,Acu-Link.com,2013-06-30 00:52:00,
2013-06-29 21:07:00,78.4,73.9,29.56,South,180,7.8,-999.0,86,-99.99,,,0.00,Acu-Link.com,2013-06-30 01:07:00,
2013-06-29 21:23:00,78.3,73.8,29.58,SW,225,6.8,-999.0,86,-99.99,,,0.00,Acu-Link.com,2013-06-30 01:23:00,
2013-06-29 21:38:00,78.3,73.4,29.58,WNW,292,7.3,-999.0,85,-99.99,,,0.00,Acu-Link.com,2013-06-30 01:38:00,
2013-06-29 21:53:00,78.4,73.5,29.57,SW,225,4.2,-999.0,85,-99.99,,,0.00,Acu-Link.com,2013-06-30 01:53:00,
2013-06-29 22:08:00,78.6,73.7,29.58,WSW,247,13.5,-999.0,85,-99.99,,,0.00,Acu-Link.com,2013-06-30 02:08:00,
2013-06-29 22:23:00,78.8,73.5,29.58,WSW,247,4.2,-999.0,84,-99.99,,,0.00,Acu-Link.com,2013-06-30 02:23:00,
2013-06-29 22:38:00,79.0,73.7,29.59,SW,225,3.2,-999.0,84,-99.99,,,0.00,Acu-Link.com,2013-06-30 02:38:00,
2013-06-29 22:53:00,79.2,73.9,29.59,SW,225,10.4,-999.0,84,-99.99,,,0.00,Acu-Link.com,2013-06-30 02:53:00,
2013-06-29 23:08:00,79.2,74.3,29.60,North,0,7.3,-999.0,85,-99.99,,,0.00,Acu-Link.com,2013-06-30 03:08:00,
2013-06-29 23:23:00,79.3,74.4,29.60,SSE,157,8.3,-999.0,85,-99.99,,,0.00,Acu-Link.com,2013-06-30 03:23:00,
2013-06-29 23:39:00,79.5,74.6,29.61,SSW,202,13.0,-999.0,85,-99.99,,,0.00,Acu-Link.com,2013-06-30 03:39:00,
2013-06-29 23:54:00,79.5,74.2,29.60,SW,225,12.5,-999.0,84,-99.99,,,0.00,Acu-Link.com,2013-06-30 03:54:00,